This is the latest recevied weather packets stored in our database for station/object F4JAB-11. If no packets are shown the sender has not sent any weather packets the latest 10 day(s).
| Time | Temp. | Humidity | Pressure | Rain* | Wind** | Luminosity | Snow |
|---|---|---|---|---|---|---|---|
| 1777754583 | 22.22° C | 41% | 1000.5 hPa | - | - | - | - |
| 1777751702 | 22.78° C | 40% | 1000.4 hPa | - | - | - | - |
| 1777748822 | 23.89° C | 40% | 1000.2 hPa | - | - | - | - |
| 1777745942 | 25.56° C | 39% | 1000.3 hPa | - | - | - | - |
| 1777743062 | 26.67° C | 40% | 1000.5 hPa | - | - | - | - |
| 1777740181 | 26.67° C | 41% | 1008.3 hPa | - | - | - | - |
| 1777708867 | 20° C | 36% | 1014.6 hPa | - | - | - | - |
| 1777706008 | 17.78° C | 37% | 1014.5 hPa | - | - | - | - |
| 1777700224 | 16.67° C | 36% | 1014.6 hPa | - | - | - | - |
| 1777682985 | 20.56° C | 34% | 1016.8 hPa | - | - | - | - |
| 1777667824 | 28.33° C | 33% | 1017 hPa | - | - | - | - |
| 1777656302 | 39.44° C | 29% | 1016.1 hPa | - | - | - | - |
| 1777641902 | 38.89° C | 31% | 1018.1 hPa | - | - | - | - |
| 1777636503 | 34.44° C | 34% | 1018.7 hPa | - | - | - | - |
| 1777624988 | 21.11° C | 43% | 1018.5 hPa | - | - | - | - |
| 1777613039 | 17.78° C | 46% | 1014.7 hPa | - | - | - | - |
| 1777602238 | 18.89° C | 32% | 1006.8 hPa | - | - | - | - |
| 1777598638 | 19.44° C | 31% | 1006.8 hPa | - | - | - | - |
| 1777579735 | 25.56° C | 31% | 1005.8 hPa | - | - | - | - |
| 1777573974 | 30° C | 29% | 1004.8 hPa | - | - | - | - |
| 1777571094 | 31.67° C | 29% | 1004.2 hPa | - | - | - | - |
| 1777568221 | 31.67° C | 29% | 1008.1 hPa | - | - | - | - |
| 1777556698 | 41.11° C | 22% | 1013.5 hPa | - | - | - | - |
| 1777542295 | 26.67° C | 29% | 1013.4 hPa | - | - | - | - |
| 1777533657 | 18.89° C | 32% | 1012.8 hPa | - | - | - | - |
* Rain since midnight (hover to see other rain measurements)
** Current wind speed in m/s (hover to see current wind gust speed)